Aérodrome :
LOGIN :

S'inscrire | Disclaimer

   EN    FR    IT 

 










Légende :    VFR   VFR Marginal   IFR   IFR Intensif   IFR Très Intensif
Visi : 
Plafond : 
>= 8 km
>= 3000ft
5 à 8 km
1000 à 3000 ft
1500m à 5 km
500 à 1000 ft
800 à 1500m
200 à 500 ft
< 800m
< 200 ft
Symboles :   Orages  Brouillard  Fortes neiges  Fortes précipitations  Vent > 20 kt
SIGMETs :   Divers  Orages  Givrage  Turbulence  Onde Orograph.  Cendres Volcan.






- Altitude de l'aérodrome : 407 ft


EGDM - MoD Boscombe Down Amesbury

DERNIER METAR :
  • 251620Z 28008KT 9999 FEW032 SCT170 10/02 Q1029 NOSIG RMK BLU BLU

METARs EXPIRÉS :
  • 251550Z 30011KT 9999 FEW032 SCT160 11/01 Q1028 NOSIG RMK BLU BLU
  • 251520Z 30010KT 9999 FEW030 SCT130 11/02 Q1028 NOSIG RMK BLU BLU
  • 251450Z 28009KT 9999 FEW028 BKN130 11/04 Q1028 NOSIG RMK BLU BLU
  • 251420Z 29010KT 9999 FEW025 BKN120 10/04 Q1028 NOSIG RMK BLU BLU
  • 251350Z 31011KT 9999 FEW025 BKN120 11/04 Q1028 NOSIG RMK BLU BLU

TAF TAF EGDM
Valide du 25 à 15h jusqu'au 25 à 19h UTC


251339Z 2515/2519 29008KT 9999 FEW025



MET'MAP, la Météo Aéronautique d'un coup d'oeil ! - Copyright ORBIFLY Décembre 2007 - Disclaimer

ORBIFLY MET'MAP TEAM :

Programmation & Développement : Alexandra Zaïnal
Sur une idée originale de : Baudouin d'Aumeries
Assistance à la programmation : Marc-Olivier Méhu
Soutien technique & logistique : Manuel Goepfert

Contact : metmap@orbifly.com




SOURCES & CREDITS :

   NOAA